Time;durP1;ratioP1;P1;durP2;ratioP2;P2;SDS_P1;SDS_P2;PMS_P1;PMS_P2;Temp;Humidity;BMP_temperature;BMP_pressure;BME280_temperature;BME280_humidity;BME280_pressure;Samples;Min_cycle;Max_cycle;Signal;HPM_P1;HPM_P2
2021/03/29 00:01:29;;;;;;;5.97;4.77;;;10.30;1.00;;;;;;5068820;28;20540;-72
2021/03/29 00:03:55;;;;;;;5.03;4.63;;;10.30;1.00;;;;;;5066600;28;20479;-72
2021/03/29 00:06:21;;;;;;;5.10;4.70;;;10.30;1.00;;;;;;5070050;28;20235;-72
2021/03/29 00:08:48;;;;;;;4.70;4.30;;;10.30;1.00;;;;;;5070099;28;20205;-72
2021/03/29 00:11:16;;;;;;;4.70;4.30;;;10.30;1.00;;;;;;5070042;28;20428;-73
2021/03/29 00:13:41;;;;;;;4.33;4.00;;;10.30;1.00;;;;;;5068729;28;20537;-73
2021/03/29 00:16:08;;;;;;;6.37;4.30;;;10.20;1.00;;;;;;5068721;28;20535;-73
2021/03/29 00:18:33;;;;;;;4.90;4.40;;;10.20;1.00;;;;;;5067902;28;20184;-72
2021/03/29 00:21:07;;;;;;;4.80;4.30;;;10.10;1.00;;;;;;5072444;28;20506;-73
2021/03/29 00:23:34;;;;;;;4.40;4.00;;;10.10;1.00;;;;;;5072388;28;20185;-71
2021/03/29 00:26:00;;;;;;;4.30;4.00;;;10.10;1.00;;;;;;5073455;28;20415;-72
2021/03/29 00:28:25;;;;;;;4.93;4.40;;;10.10;1.00;;;;;;5071976;28;20955;-73
2021/03/29 00:30:51;;;;;;;5.17;4.77;;;10.00;1.00;;;;;;5073814;28;20522;-72
2021/03/29 00:33:18;;;;;;;4.90;4.60;;;10.00;1.00;;;;;;5072010;28;20986;-72
2021/03/29 00:35:49;;;;;;;7.07;4.37;;;10.00;1.00;;;;;;5073034;28;20510;-72
2021/03/29 00:38:16;;;;;;;6.83;4.43;;;10.30;1.00;;;;;;5072946;28;20451;-73
2021/03/29 00:40:48;;;;;;;7.10;4.70;;;10.40;1.00;;;;;;5072495;28;20420;-73
2021/03/29 00:43:44;;;;;;;5.80;4.70;;;10.40;1.00;;;;;;5072367;28;20435;-72
2021/03/29 00:46:10;;;;;;;4.00;3.70;;;10.50;1.00;;;;;;5059767;28;20443;-74
2021/03/29 00:48:37;;;;;;;4.57;4.17;;;10.50;1.00;;;;;;5070841;28;20860;-72
2021/03/29 00:51:13;;;;;;;4.90;4.50;;;10.50;1.00;;;;;;5072422;28;20773;-72
2021/03/29 00:53:43;;;;;;;4.30;3.90;;;10.60;99.90;;;;;;5056178;28;20744;-73
2021/03/29 00:56:09;;;;;;;5.60;4.37;;;10.60;99.90;;;;;;5071998;28;20426;-71
2021/03/29 00:58:36;;;;;;;5.23;4.73;;;10.60;99.90;;;;;;5073446;28;20406;-72
2021/03/29 01:01:28;;;;;;;4.87;4.47;;;10.60;99.90;;;;;;5071269;28;20515;-72
2021/03/29 01:03:59;;;;;;;4.53;4.10;;;10.60;99.90;;;;;;5063261;28;20809;-72
2021/03/29 01:06:27;;;;;;;4.20;3.90;;;10.60;99.90;;;;;;5070920;28;20422;-73
2021/03/29 01:08:56;;;;;;;4.77;4.27;;;10.50;99.90;;;;;;5071290;28;20557;-73
2021/03/29 01:11:28;;;;;;;3.87;3.57;;;10.40;99.90;;;;;;5069723;28;20420;-73
2021/03/29 01:14:09;;;;;;;4.57;4.17;;;10.40;1.00;;;;;;5071309;28;20428;-74
2021/03/29 01:16:41;;;;;;;4.60;4.30;;;10.30;1.00;;;;;;5068985;28;20412;-73
2021/03/29 01:19:15;;;;;;;4.87;4.47;;;10.40;1.00;;;;;;5078038;28;20450;-72
2021/03/29 01:21:52;;;;;;;5.17;4.23;;;10.40;1.00;;;;;;5073685;28;20435;-73
2021/03/29 01:24:24;;;;;;;4.80;4.40;;;10.40;1.00;;;;;;5071041;28;20900;-73
2021/03/29 01:26:52;;;;;;;5.20;4.40;;;10.40;99.90;;;;;;5069569;28;21219;-73
2021/03/29 01:29:18;;;;;;;4.80;4.23;;;10.50;1.00;;;;;;5070923;28;21126;-71
2021/03/29 01:31:46;;;;;;;4.77;4.37;;;10.60;99.90;;;;;;5068414;28;20438;-72
2021/03/29 01:34:14;;;;;;;4.10;3.80;;;10.70;99.90;;;;;;5065963;28;20806;-72
2021/03/29 01:36:42;;;;;;;4.20;3.90;;;10.70;99.90;;;;;;5069478;28;20432;-72
2021/03/29 01:39:10;;;;;;;4.70;4.40;;;10.80;99.90;;;;;;5070633;28;20499;-73
2021/03/29 01:41:36;;;;;;;4.13;3.73;;;10.80;99.90;;;;;;5070273;28;20990;-73
2021/03/29 01:44:02;;;;;;;4.67;4.27;;;10.80;99.90;;;;;;5070012;28;20565;-72
2021/03/29 01:46:28;;;;;;;5.10;4.23;;;10.80;99.90;;;;;;5069737;28;20509;-73
2021/03/29 01:48:55;;;;;;;4.40;4.00;;;10.80;99.90;;;;;;5068697;28;20467;-74
2021/03/29 01:51:21;;;;;;;4.20;3.90;;;10.90;99.90;;;;;;5069174;28;20943;-74
2021/03/29 01:53:47;;;;;;;4.90;4.27;;;10.90;99.90;;;;;;5070126;28;20563;-73
2021/03/29 01:56:13;;;;;;;5.00;4.40;;;10.90;99.90;;;;;;5069689;28;20415;-73
2021/03/29 01:58:39;;;;;;;4.40;4.10;;;10.90;99.90;;;;;;5067306;28;20547;-73
2021/03/29 02:01:08;;;;;;;4.83;3.90;;;10.80;99.90;;;;;;5070129;28;20521;-73
2021/03/29 02:03:35;;;;;;;4.90;4.40;;;10.80;1.00;;;;;;5069494;28;20687;-74
2021/03/29 02:06:02;;;;;;;5.63;5.07;;;10.80;1.00;;;;;;5069696;28;20415;-74
2021/03/29 02:08:29;;;;;;;6.97;4.30;;;10.80;1.00;;;;;;5068009;28;20447;-74
2021/03/29 02:10:57;;;;;;;4.50;4.10;;;10.80;1.00;;;;;;5070218;28;20459;-73
2021/03/29 02:13:27;;;;;;;4.20;3.80;;;10.80;1.00;;;;;;5068198;28;20439;-72
2021/03/29 02:15:59;;;;;;;4.17;3.70;;;10.80;1.00;;;;;;5068849;28;20470;-74
2021/03/29 02:18:28;;;;;;;4.90;4.20;;;10.80;99.90;;;;;;5073272;28;20479;-73
2021/03/29 02:21:03;;;;;;;7.00;4.43;;;10.80;99.90;;;;;;5073601;28;20435;-72
2021/03/29 02:23:30;;;;;;;5.60;4.27;;;10.80;1.00;;;;;;5068611;28;20435;-74
2021/03/29 02:25:57;;;;;;;4.43;4.00;;;10.90;99.90;;;;;;5069161;28;20442;-73
2021/03/29 02:28:23;;;;;;;4.90;4.37;;;10.90;99.90;;;;;;5069039;28;20477;-73
2021/03/29 02:30:49;;;;;;;6.13;4.40;;;11.00;99.90;;;;;;5068849;28;20463;-73
2021/03/29 02:33:16;;;;;;;4.47;4.03;;;11.00;99.90;;;;;;5068409;28;20204;-72
2021/03/29 02:35:43;;;;;;;4.43;4.03;;;11.10;99.90;;;;;;5068446;28;20442;-72
2021/03/29 02:38:17;;;;;;;4.13;3.77;;;11.20;99.90;;;;;;5068331;28;20473;-74
2021/03/29 02:40:45;;;;;;;4.57;4.20;;;11.30;99.90;;;;;;5068461;28;20430;-74
2021/03/29 02:43:12;;;;;;;3.93;3.70;;;11.40;99.90;;;;;;5067725;28;20463;-74
2021/03/29 02:45:42;;;;;;;4.20;3.80;;;11.60;99.90;;;;;;5066519;28;20435;-74
2021/03/29 02:48:10;;;;;;;7.07;4.20;;;11.70;99.90;;;;;;5069669;28;20419;-73
2021/03/29 02:50:41;;;;;;;5.63;3.90;;;11.80;99.90;;;;;;5068460;28;20467;-73
2021/03/29 02:53:13;;;;;;;4.20;3.80;;;11.80;99.90;;;;;;5068987;28;20436;-73
2021/03/29 02:55:39;;;;;;;5.27;3.80;;;11.70;99.90;;;;;;5068706;28;20482;-74
2021/03/29 02:58:06;;;;;;;4.10;3.70;;;11.80;99.90;;;;;;5068782;28;20432;-73
2021/03/29 03:00:34;;;;;;;4.10;3.70;;;11.80;99.90;;;;;;5066683;28;20435;-74
2021/03/29 03:03:02;;;;;;;3.73;3.43;;;11.90;99.90;;;;;;5068944;28;20471;-75
2021/03/29 03:05:29;;;;;;;4.77;3.80;;;11.80;99.90;;;;;;5068293;28;20485;-74
2021/03/29 03:07:56;;;;;;;5.90;4.50;;;11.80;99.90;;;;;;5067220;28;20435;-74
2021/03/29 03:10:22;;;;;;;5.40;3.60;;;11.80;99.90;;;;;;5066580;28;20494;-74
2021/03/29 03:12:49;;;;;;;5.07;4.00;;;11.90;99.90;;;;;;5067484;28;20431;-73
2021/03/29 03:15:21;;;;;;;3.93;3.63;;;12.00;99.90;;;;;;5067623;28;20467;-73
2021/03/29 03:17:47;;;;;;;3.87;3.47;;;11.90;99.90;;;;;;5068217;28;20493;-73
2021/03/29 03:20:15;;;;;;;5.13;3.70;;;12.00;99.90;;;;;;5068579;28;20913;-74
2021/03/29 03:22:56;;;;;;;5.40;4.03;;;12.00;99.90;;;;;;5065450;28;20853;-74
2021/03/29 03:25:22;;;;;;;5.40;3.60;;;11.90;99.90;;;;;;5068585;28;20458;-73
2021/03/29 03:27:48;;;;;;;5.30;3.77;;;12.00;99.90;;;;;;5068531;28;20928;-74
2021/03/29 03:30:25;;;;;;;3.43;3.23;;;12.00;99.90;;;;;;5067214;28;20258;-74
2021/03/29 03:32:52;;;;;;;3.90;3.50;;;11.90;99.90;;;;;;5056028;28;20952;-74
2021/03/29 03:35:20;;;;;;;4.30;3.90;;;11.90;99.90;;;;;;5068759;28;20422;-74
2021/03/29 03:37:52;;;;;;;3.77;3.47;;;11.90;99.90;;;;;;5067166;28;20435;-74
2021/03/29 03:40:20;;;;;;;3.50;3.20;;;12.00;99.90;;;;;;5069083;28;20434;-72
2021/03/29 03:42:48;;;;;;;4.90;3.70;;;12.00;99.90;;;;;;5067955;28;20419;-73
2021/03/29 03:45:13;;;;;;;4.30;3.87;;;11.90;99.90;;;;;;5068424;28;20431;-73
2021/03/29 03:47:41;;;;;;;4.10;3.80;;;11.90;99.90;;;;;;5068073;28;20503;-74
2021/03/29 03:50:10;;;;;;;4.47;3.80;;;11.90;99.90;;;;;;5082349;28;20299;-75
2021/03/29 03:52:38;;;;;;;3.83;3.40;;;11.90;99.90;;;;;;5067260;28;20489;-74
2021/03/29 03:55:05;;;;;;;4.13;3.63;;;11.80;99.90;;;;;;5069811;28;20844;-74
2021/03/29 03:57:32;;;;;;;3.97;3.67;;;11.80;99.90;;;;;;5070690;28;20427;-74
2021/03/29 03:59:58;;;;;;;4.17;3.77;;;11.80;99.90;;;;;;5071111;28;20484;-75
2021/03/29 04:02:24;;;;;;;4.60;4.20;;;11.80;99.90;;;;;;5071829;28;20931;-73
2021/03/29 04:04:49;;;;;;;4.00;3.53;;;11.70;99.90;;;;;;5070646;28;20288;-75
2021/03/29 04:07:15;;;;;;;5.53;3.70;;;11.70;99.90;;;;;;5066402;28;20695;-74
2021/03/29 04:12:10;;;;;;;4.07;3.43;;;11.60;99.90;;;;;;5071783;28;20543;-74
2021/03/29 04:14:36;;;;;;;3.63;3.33;;;11.80;99.90;;;;;;5070601;28;20423;-75
2021/03/29 04:17:02;;;;;;;7.17;3.87;;;11.90;99.90;;;;;;5070458;28;20469;-74
2021/03/29 04:19:28;;;;;;;5.07;3.47;;;12.00;99.90;;;;;;5069193;28;20189;-74
2021/03/29 04:21:54;;;;;;;3.80;3.27;;;12.00;99.90;;;;;;5071123;28;20447;-75
2021/03/29 04:24:19;;;;;;;4.20;3.80;;;12.10;99.90;;;;;;5071084;28;20901;-74
2021/03/29 04:26:45;;;;;;;4.10;3.60;;;12.10;99.90;;;;;;5070790;28;20242;-75
2021/03/29 04:29:10;;;;;;;4.67;3.70;;;12.10;99.90;;;;;;5071807;28;20284;-73
2021/03/29 04:31:36;;;;;;;5.90;3.90;;;12.10;99.90;;;;;;5069706;28;20190;-74
2021/03/29 04:34:02;;;;;;;4.07;3.67;;;12.10;99.90;;;;;;5071397;28;20594;-73
2021/03/29 04:36:27;;;;;;;4.30;3.77;;;12.10;99.90;;;;;;5071367;28;20185;-71
2021/03/29 04:38:53;;;;;;;4.67;3.60;;;12.00;99.90;;;;;;5070293;28;20193;-73
2021/03/29 04:41:19;;;;;;;4.10;3.70;;;12.00;99.90;;;;;;5070642;28;20197;-74
2021/03/29 04:43:44;;;;;;;4.27;3.90;;;12.00;99.90;;;;;;5075759;28;20197;-73
2021/03/29 04:46:10;;;;;;;5.43;4.10;;;11.90;99.90;;;;;;5070227;28;20982;-74
2021/03/29 04:48:35;;;;;;;4.27;3.80;;;11.90;99.90;;;;;;5069590;28;20228;-74
2021/03/29 04:51:01;;;;;;;4.80;4.30;;;12.00;99.90;;;;;;5070645;28;20271;-74
2021/03/29 04:53:26;;;;;;;6.70;4.50;;;12.00;99.90;;;;;;5069562;28;20181;-73
2021/03/29 04:55:52;;;;;;;3.93;3.63;;;11.90;99.90;;;;;;5071221;28;20267;-73
2021/03/29 04:58:17;;;;;;;5.37;4.83;;;11.90;99.90;;;;;;5070550;28;20260;-74
2021/03/29 05:00:43;;;;;;;3.70;3.50;;;11.80;99.90;;;;;;5070463;28;20194;-74
2021/03/29 05:03:08;;;;;;;4.23;3.93;;;11.70;99.90;;;;;;5069662;28;20232;-72
2021/03/29 05:05:34;;;;;;;5.17;4.30;;;11.70;99.90;;;;;;5070277;28;20209;-73
2021/03/29 05:08:00;;;;;;;5.20;4.20;;;11.60;99.90;;;;;;5070291;28;20254;-73
2021/03/29 05:10:25;;;;;;;7.33;4.50;;;11.60;99.90;;;;;;5070118;28;20197;-73
2021/03/29 05:12:51;;;;;;;5.50;4.50;;;11.60;99.90;;;;;;5066537;28;20268;-73
2021/03/29 05:15:17;;;;;;;5.80;4.40;;;11.50;99.90;;;;;;5069873;28;20181;-75
2021/03/29 05:17:42;;;;;;;5.30;4.33;;;11.50;99.90;;;;;;5067969;28;21087;-72
2021/03/29 05:20:09;;;;;;;5.93;4.70;;;11.30;99.90;;;;;;5068565;28;20440;-72
2021/03/29 05:22:35;;;;;;;5.20;4.70;;;11.20;99.90;;;;;;5060494;28;20181;-74
2021/03/29 05:25:00;;;;;;;7.53;4.80;;;11.20;99.90;;;;;;5058837;28;20442;-72
2021/03/29 05:27:26;;;;;;;8.10;4.70;;;11.20;99.90;;;;;;5059842;28;20196;-75
2021/03/29 05:29:52;;;;;;;5.60;5.00;;;11.20;99.90;;;;;;5061322;28;20299;-74
2021/03/29 05:32:19;;;;;;;6.10;4.67;;;11.10;1.00;;;;;;5061373;28;20634;-73
2021/03/29 05:34:48;;;;;;;5.57;4.83;;;11.10;1.00;;;;;;5059697;28;20917;-73
2021/03/29 05:37:15;;;;;;;9.23;6.07;;;11.00;1.00;;;;;;5057636;28;20435;-72
2021/03/29 05:39:43;;;;;;;4.50;4.17;;;11.00;1.00;;;;;;5059735;28;20427;-74
2021/03/29 05:42:09;;;;;;;7.77;5.23;;;11.00;1.00;;;;;;5059801;28;20500;-74
2021/03/29 05:44:36;;;;;;;5.50;5.10;;;11.00;1.00;;;;;;5058997;28;20439;-74
2021/03/29 05:47:03;;;;;;;5.40;4.90;;;11.00;1.00;;;;;;5059730;28;20189;-73
2021/03/29 05:49:31;;;;;;;6.13;4.37;;;11.00;1.00;;;;;;5060113;28;20482;-74
2021/03/29 05:51:56;;;;;;;7.30;5.07;;;11.10;1.00;;;;;;5069240;28;20926;-74
2021/03/29 05:54:22;;;;;;;5.50;5.00;;;11.10;1.00;;;;;;5070481;28;20423;-74
2021/03/29 05:56:49;;;;;;;7.00;5.30;;;11.20;1.00;;;;;;5069647;28;20501;-72
2021/03/29 06:01:59;;;;;;;11.23;5.20;;;11.10;1.00;;;;;;5067995;28;20455;-74
2021/03/29 06:04:49;;;;;;;5.23;4.73;;;11.20;1.00;;;;;;5067562;28;20278;-74
2021/03/29 06:07:31;;;;;;;5.30;4.80;;;11.20;1.00;;;;;;5069305;28;20429;-74
2021/03/29 06:10:08;;;;;;;7.73;5.80;;;11.10;1.00;;;;;;5062299;28;20795;-74
2021/03/29 06:12:46;;;;;;;7.27;5.60;;;11.10;1.00;;;;;;5068362;28;20496;-74
2021/03/29 06:15:13;;;;;;;8.27;4.60;;;11.10;1.00;;;;;;5068824;28;21219;-75
2021/03/29 06:17:39;;;;;;;6.40;4.90;;;11.20;1.00;;;;;;5068192;28;20779;-75
2021/03/29 06:20:07;;;;;;;8.53;5.37;;;11.20;1.00;;;;;;5065545;28;20446;-74
2021/03/29 06:22:34;;;;;;;6.80;5.27;;;11.30;1.00;;;;;;5069698;28;20484;-75
2021/03/29 06:25:06;;;;;;;9.00;5.50;;;11.40;1.00;;;;;;5069478;28;20421;-74
2021/03/29 06:27:49;;;;;;;5.73;5.13;;;11.50;1.00;;;;;;5068736;28;20419;-74
2021/03/29 06:30:18;;;;;;;6.53;4.80;;;11.70;1.00;;;;;;5070027;28;20467;-73
2021/03/29 06:33:15;;;;;;;8.90;4.67;;;11.80;1.00;;;;;;5069746;28;20400;-74
2021/03/29 06:35:43;;;;;;;6.10;5.00;;;12.10;1.00;;;;;;5065498;28;20435;-74
2021/03/29 06:38:41;;;;;;;7.53;4.90;;;12.20;99.90;;;;;;5069859;28;20938;-73
2021/03/29 06:41:06;;;;;;;6.73;5.60;;;12.30;99.90;;;;;;5062389;28;20485;-74
2021/03/29 06:43:39;;;;;;;5.20;4.80;;;12.50;99.90;;;;;;5078658;28;20420;-75
2021/03/29 06:46:21;;;;;;;5.83;5.27;;;12.70;99.90;;;;;;5066073;28;20521;-75
2021/03/29 06:48:47;;;;;;;5.90;4.80;;;12.90;99.90;;;;;;5066762;28;20463;-74
2021/03/29 06:51:19;;;;;;;7.13;4.80;;;13.10;99.90;;;;;;5067617;28;20446;-74
2021/03/29 06:54:01;;;;;;;6.30;4.43;;;13.20;99.90;;;;;;5058783;28;20645;-70
2021/03/29 06:56:30;;;;;;;5.13;4.50;;;13.30;99.90;;;;;;5071954;28;20425;-69
2021/03/29 06:59:06;;;;;;;5.53;4.50;;;13.30;99.90;;;;;;5073907;28;20432;-70
2021/03/29 07:01:35;;;;;;;5.20;4.47;;;13.50;99.90;;;;;;5068396;28;20436;-71
2021/03/29 07:04:03;;;;;;;6.80;4.43;;;13.50;99.90;;;;;;5067920;28;20474;-71
2021/03/29 07:06:30;;;;;;;5.63;5.00;;;13.60;99.90;;;;;;5069733;28;20426;-71
2021/03/29 07:09:07;;;;;;;5.90;5.10;;;13.70;99.90;;;;;;5068106;28;20480;-70
2021/03/29 07:11:34;;;;;;;5.63;4.90;;;13.70;99.90;;;;;;5068132;28;20507;-71
2021/03/29 07:14:02;;;;;;;7.17;3.83;;;13.70;99.90;;;;;;5065828;28;20453;-71
2021/03/29 07:16:28;;;;;;;7.50;4.93;;;13.80;99.90;;;;;;5067871;28;20757;-72
2021/03/29 07:18:58;;;;;;;5.83;5.33;;;13.80;99.90;;;;;;5069526;28;20431;-71
2021/03/29 07:21:25;;;;;;;8.83;5.43;;;14.00;99.90;;;;;;5068057;28;20911;-72
2021/03/29 07:23:52;;;;;;;9.40;5.73;;;14.10;99.90;;;;;;5073507;28;20949;-71
2021/03/29 07:26:40;;;;;;;6.77;4.43;;;14.20;99.90;;;;;;5055902;28;20447;-72
2021/03/29 07:29:24;;;;;;;5.10;4.70;;;14.40;99.90;;;;;;5061813;28;20466;-71
2021/03/29 07:31:52;;;;;;;6.07;4.87;;;14.60;99.90;;;;;;5059325;28;20828;-73
2021/03/29 07:34:48;;;;;;;5.33;4.83;;;14.70;99.90;;;;;;5073944;28;20450;-73
2021/03/29 07:37:43;;;;;;;6.53;5.33;;;14.90;99.90;;;;;;5073553;28;20899;-72
2021/03/29 07:40:18;;;;;;;5.97;4.87;;;14.90;99.90;;;;;;5065987;28;20419;-71
2021/03/29 07:42:45;;;;;;;8.30;5.23;;;15.00;99.90;;;;;;5068144;28;20452;-70
2021/03/29 07:45:14;;;;;;;5.37;4.97;;;15.20;99.90;;;;;;5071751;28;20541;-71
2021/03/29 07:47:41;;;;;;;6.77;5.40;;;15.20;99.90;;;;;;5075368;28;20910;-70
2021/03/29 07:50:09;;;;;;;5.37;4.43;;;15.40;99.90;;;;;;5070119;28;20715;-69
2021/03/29 07:52:43;;;;;;;5.33;4.80;;;15.50;99.90;;;;;;5066696;28;20463;-70
2021/03/29 07:55:43;;;;;;;6.03;4.40;;;15.50;99.90;;;;;;5071264;28;21363;-69
2021/03/29 07:58:26;;;;;;;8.40;4.67;;;15.30;99.90;;;;;;5065666;28;20439;-68
2021/03/29 08:00:58;;;;;;;8.00;4.97;;;15.30;99.90;;;;;;5075655;28;20439;-69
2021/03/29 08:03:24;;;;;;;5.73;5.23;;;15.30;99.90;;;;;;5073189;28;20549;-68
2021/03/29 08:05:51;;;;;;;8.20;6.07;;;15.40;99.90;;;;;;5072105;28;20639;-69
2021/03/29 08:08:33;;;;;;;5.93;5.30;;;15.40;99.90;;;;;;5068527;28;20558;-71
2021/03/29 08:11:09;;;;;;;15.63;6.50;;;15.50;99.90;;;;;;5065047;28;20433;-71
2021/03/29 08:13:47;;;;;;;7.50;5.70;;;15.30;99.90;;;;;;5070575;28;20407;-70
2021/03/29 08:16:15;;;;;;;6.20;5.60;;;15.30;99.90;;;;;;5066853;28;20482;-72
2021/03/29 08:19:20;;;;;;;7.20;6.50;;;15.20;99.90;;;;;;5058140;28;21143;-71
2021/03/29 08:22:08;;;;;;;6.13;5.37;;;15.20;99.90;;;;;;5068677;28;20434;-68
2021/03/29 08:24:41;;;;;;;7.28;5.30;;;15.30;99.90;;;;;;5065686;28;20900;-69
2021/03/29 08:27:27;;;;;;;7.40;5.73;;;15.40;99.90;;;;;;5058210;28;20392;-71
2021/03/29 08:29:56;;;;;;;9.37;6.90;;;15.50;99.90;;;;;;5063675;28;20538;-68
2021/03/29 08:32:31;;;;;;;7.60;6.50;;;15.70;99.90;;;;;;5071195;28;20415;-69
2021/03/29 08:35:00;;;;;;;6.70;6.10;;;15.90;99.90;;;;;;5061402;28;20447;-67
2021/03/29 08:37:43;;;;;;;8.43;5.63;;;16.00;99.90;;;;;;5069401;28;20483;-70
2021/03/29 08:40:16;;;;;;;6.20;5.60;;;16.10;99.90;;;;;;5068798;28;20532;-69
2021/03/29 08:42:44;;;;;;;6.87;6.20;;;16.20;99.90;;;;;;5071336;28;20441;-69
2021/03/29 08:45:12;;;;;;;7.93;6.87;;;16.50;99.90;;;;;;5070873;28;20794;-69
2021/03/29 08:47:40;;;;;;;8.00;6.40;;;16.80;99.90;;;;;;5068136;28;20435;-68
2021/03/29 08:50:12;;;;;;;7.00;6.20;;;17.10;1.00;;;;;;5070353;28;20503;-67
2021/03/29 08:52:40;;;;;;;7.13;4.97;;;17.10;99.90;;;;;;5068271;28;20432;-66
2021/03/29 08:55:07;;;;;;;7.17;4.70;;;17.60;99.90;;;;;;5070564;28;20415;-67
2021/03/29 08:57:32;;;;;;;5.30;4.30;;;18.10;99.90;;;;;;5069398;28;20442;-67
2021/03/29 09:00:01;;;;;;;6.77;4.10;;;18.60;99.90;;;;;;5070000;28;20427;-68
2021/03/29 09:02:27;;;;;;;5.30;4.03;;;18.80;99.90;;;;;;5066343;28;20242;-68
2021/03/29 09:04:58;;;;;;;5.40;4.47;;;19.00;99.90;;;;;;5068022;28;20549;-66
2021/03/29 09:07:37;;;;;;;5.00;4.30;;;19.20;99.90;;;;;;5068272;28;20889;-67
2021/03/29 09:10:17;;;;;;;5.67;4.60;;;19.70;1.00;;;;;;5069783;28;20459;-68
2021/03/29 09:12:45;;;;;;;5.73;4.50;;;20.10;99.90;;;;;;5066485;28;20796;-69
2021/03/29 09:15:16;;;;;;;6.23;4.10;;;19.90;99.90;;;;;;5069376;28;20886;-69
2021/03/29 09:17:43;;;;;;;5.30;3.73;;;20.10;99.90;;;;;;5067827;28;20435;-70
2021/03/29 09:20:23;;;;;;;7.07;4.40;;;20.40;99.90;;;;;;5062519;28;20435;-70
2021/03/29 09:22:49;;;;;;;6.83;4.20;;;21.00;1.00;;;;;;5065279;28;20422;-69
2021/03/29 09:25:37;;;;;;;6.50;4.43;;;21.10;99.90;;;;;;5068230;28;20412;-69
2021/03/29 09:28:25;;;;;;;4.63;4.13;;;20.60;99.90;;;;;;5068441;28;20432;-65
2021/03/29 09:30:54;;;;;;;6.03;3.70;;;20.60;99.90;;;;;;5068272;28;20819;-68
2021/03/29 09:33:21;;;;;;;6.30;4.20;;;20.90;99.90;;;;;;5068464;28;20435;-69
2021/03/29 09:35:47;;;;;;;7.80;4.43;;;20.90;99.90;;;;;;5065782;28;20435;-69
2021/03/29 09:38:15;;;;;;;5.40;4.18;;;21.00;99.90;;;;;;5066126;28;20436;-68
2021/03/29 09:40:41;;;;;;;6.47;4.57;;;21.20;99.90;;;;;;5059136;28;20189;-68
2021/03/29 09:43:19;;;;;;;5.53;3.97;;;21.70;99.90;;;;;;5064557;28;20619;-68
2021/03/29 09:45:46;;;;;;;4.93;3.90;;;22.30;99.90;;;;;;5067565;28;20431;-67
2021/03/29 09:48:12;;;;;;;5.97;4.23;;;22.40;99.90;;;;;;5066505;28;20473;-67
2021/03/29 09:50:46;;;;;;;3.80;3.50;;;22.30;99.90;;;;;;5067148;28;20467;-68
2021/03/29 09:53:22;;;;;;;6.37;4.73;;;22.20;99.90;;;;;;5068198;28;20496;-68
2021/03/29 09:55:56;;;;;;;4.13;3.70;;;21.50;99.90;;;;;;5063957;28;21139;-69
2021/03/29 09:58:39;;;;;;;5.90;4.30;;;21.60;99.90;;;;;;5068698;28;20505;-67
2021/03/29 10:01:21;;;;;;;4.90;4.20;;;22.00;99.90;;;;;;5062748;28;20456;-69
2021/03/29 10:04:12;;;;;;;6.30;4.30;;;22.30;99.90;;;;;;5076217;28;20883;-68
2021/03/29 10:06:49;;;;;;;4.50;3.97;;;21.90;99.90;;;;;;5072756;28;20431;-68
2021/03/29 10:09:14;;;;;;;4.43;3.63;;;21.70;99.90;;;;;;5067504;28;20459;-67
2021/03/29 10:11:43;;;;;;;5.77;3.93;;;21.30;99.90;;;;;;5067563;28;20431;-68
2021/03/29 10:14:09;;;;;;;3.80;3.50;;;21.10;99.90;;;;;;5059884;28;20185;-68
2021/03/29 10:16:44;;;;;;;8.20;4.50;;;20.90;99.90;;;;;;5065933;28;20447;-69
2021/03/29 10:19:15;;;;;;;4.87;3.90;;;20.90;99.90;;;;;;5065558;28;20183;-68
2021/03/29 10:22:00;;;;;;;7.53;4.57;;;20.70;99.90;;;;;;5066852;28;20549;-68
2021/03/29 10:24:26;;;;;;;6.03;4.07;;;20.70;99.90;;;;;;5062016;28;20431;-67
2021/03/29 10:27:04;;;;;;;5.83;5.00;;;20.60;99.90;;;;;;5067828;28;20429;-68
2021/03/29 10:29:36;;;;;;;4.80;4.33;;;20.50;99.90;;;;;;5068520;28;20980;-69
2021/03/29 10:32:20;;;;;;;6.03;5.20;;;20.50;99.90;;;;;;5063875;28;20438;-68
2021/03/29 10:34:48;;;;;;;4.90;4.47;;;20.30;99.90;;;;;;5053415;28;20782;-68
2021/03/29 10:37:24;;;;;;;6.07;5.13;;;20.50;99.90;;;;;;5063871;28;20427;-74
2021/03/29 10:39:51;;;;;;;5.53;4.70;;;20.50;99.90;;;;;;5065720;28;20442;-73
2021/03/29 10:42:18;;;;;;;7.07;5.07;;;20.20;99.90;;;;;;5064429;28;20438;-73
2021/03/29 10:44:45;;;;;;;5.67;4.80;;;20.10;99.90;;;;;;5062171;28;20462;-70
2021/03/29 10:47:11;;;;;;;5.13;4.73;;;20.00;99.90;;;;;;5067061;28;20422;-69
2021/03/29 10:49:38;;;;;;;5.07;4.57;;;20.00;99.90;;;;;;5064892;28;20493;-73
2021/03/29 10:52:04;;;;;;;7.20;4.87;;;20.00;1.00;;;;;;5065417;28;20189;-72
2021/03/29 10:54:29;;;;;;;5.33;4.80;;;20.10;1.00;;;;;;5063245;28;20441;-74
2021/03/29 10:56:55;;;;;;;7.97;4.90;;;20.00;99.90;;;;;;5062998;28;20473;-71
2021/03/29 10:59:21;;;;;;;5.37;4.70;;;20.00;99.90;;;;;;5065713;28;20201;-64
2021/03/29 11:01:46;;;;;;;8.37;4.70;;;19.80;99.90;;;;;;5067286;28;20298;-64
2021/03/29 11:04:12;;;;;;;3.40;2.93;;;19.70;99.90;;;;;;5065841;28;20732;-64
2021/03/29 11:06:37;;;;;;;5.63;4.20;;;19.60;99.90;;;;;;5065916;28;20185;-63
2021/03/29 11:09:03;;;;;;;4.40;3.57;;;19.50;99.90;;;;;;5064904;28;20201;-64
2021/03/29 11:11:28;;;;;;;6.13;3.80;;;19.40;99.90;;;;;;5064581;28;20169;-63
2021/03/29 11:13:54;;;;;;;5.27;3.20;;;19.20;99.90;;;;;;5065204;28;20546;-64
2021/03/29 11:16:21;;;;;;;4.00;3.53;;;19.20;99.90;;;;;;5065906;28;20244;-64
2021/03/29 11:18:47;;;;;;;3.90;3.20;;;19.40;99.90;;;;;;5064532;28;20409;-64
2021/03/29 11:21:12;;;;;;;3.83;3.53;;;19.50;99.90;;;;;;5064169;28;21008;-63
2021/03/29 11:23:38;;;;;;;4.40;3.50;;;19.50;99.90;;;;;;5065848;28;20224;-64
2021/03/29 11:26:03;;;;;;;5.17;4.67;;;19.40;99.90;;;;;;5065938;28;20188;-64
2021/03/29 11:28:30;;;;;;;4.87;3.83;;;19.40;99.90;;;;;;5063634;28;20180;-64
2021/03/29 11:30:56;;;;;;;4.43;4.03;;;19.40;99.90;;;;;;5065075;28;20597;-63
2021/03/29 11:33:21;;;;;;;4.33;3.37;;;19.50;99.90;;;;;;5064317;28;20435;-64
2021/03/29 11:35:48;;;;;;;5.60;3.03;;;19.80;99.90;;;;;;5064515;28;20192;-63
2021/03/29 11:38:13;;;;;;;3.70;3.40;;;20.20;99.90;;;;;;5065817;28;20176;-64
2021/03/29 11:40:39;;;;;;;4.23;3.90;;;20.80;99.90;;;;;;5063336;28;20808;-63
2021/03/29 11:43:05;;;;;;;3.70;3.40;;;21.10;99.90;;;;;;5067918;28;20667;-63
2021/03/29 11:45:30;;;;;;;5.40;3.67;;;21.20;99.90;;;;;;5062494;28;20548;-63
2021/03/29 11:47:56;;;;;;;3.80;3.20;;;21.10;99.90;;;;;;5073003;28;20241;-64
2021/03/29 11:50:22;;;;;;;4.00;3.50;;;21.50;99.90;;;;;;5069443;28;20212;-64
2021/03/29 11:52:47;;;;;;;4.97;3.80;;;21.80;99.90;;;;;;5071163;28;21158;-64
2021/03/29 11:55:13;;;;;;;3.93;2.50;;;22.10;99.90;;;;;;5080189;28;20200;-65
2021/03/29 11:57:40;;;;;;;7.33;3.87;;;22.00;99.90;;;;;;5068499;28;20166;-64
2021/03/29 12:00:10;;;;;;;5.30;3.93;;;21.70;99.90;;;;;;5067999;28;20435;-64
2021/03/29 12:02:41;;;;;;;4.30;3.90;;;21.30;99.90;;;;;;5067616;28;20505;-64
2021/03/29 12:05:18;;;;;;;4.47;4.00;;;20.90;99.90;;;;;;5064785;28;20784;-64
2021/03/29 12:08:04;;;;;;;4.20;3.80;;;20.70;99.90;;;;;;5068091;28;20435;-63
2021/03/29 12:13:16;;;;;;;3.90;3.60;;;20.40;99.90;;;;;;5067834;28;20398;-64
2021/03/29 12:15:47;;;;;;;4.13;3.70;;;20.20;99.90;;;;;;5067255;28;20442;-64
2021/03/29 12:18:14;;;;;;;4.83;4.00;;;20.20;99.90;;;;;;5070959;28;21252;-64
2021/03/29 12:20:40;;;;;;;3.97;3.40;;;20.40;99.90;;;;;;5068150;28;20959;-64
2021/03/29 12:23:07;;;;;;;6.67;3.40;;;20.40;99.90;;;;;;5082843;28;20434;-63
2021/03/29 12:25:34;;;;;;;3.90;3.60;;;20.50;99.90;;;;;;5072004;28;20217;-63
2021/03/29 12:28:00;;;;;;;3.83;3.40;;;20.50;99.90;;;;;;5062875;28;20438;-71
2021/03/29 12:30:26;;;;;;;5.53;4.07;;;20.50;99.90;;;;;;5073243;28;20504;-72
2021/03/29 12:32:52;;;;;;;5.37;3.47;;;20.50;99.90;;;;;;5073410;28;20700;-70
2021/03/29 12:35:21;;;;;;;4.57;3.30;;;20.60;99.90;;;;;;5072209;28;20192;-73
2021/03/29 12:37:53;;;;;;;3.93;3.63;;;20.40;99.90;;;;;;5070406;28;20591;-71
2021/03/29 12:40:25;;;;;;;4.53;3.25;;;20.00;99.90;;;;;;5069338;28;20434;-78
2021/03/29 12:45:24;;;;;;;6.60;4.30;;;19.40;99.90;;;;;;5073976;28;20503;-71
2021/03/29 12:47:50;;;;;;;5.40;3.80;;;19.30;99.90;;;;;;5076600;28;20419;-73
2021/03/29 12:50:17;;;;;;;3.43;2.80;;;19.30;99.90;;;;;;5067081;28;20437;-66
2021/03/29 12:52:44;;;;;;;3.50;3.00;;;19.40;99.90;;;;;;5070586;28;20406;-69
2021/03/29 12:55:14;;;;;;;4.30;3.73;;;19.50;99.90;;;;;;5070041;28;20178;-68
2021/03/29 12:57:40;;;;;;;3.70;3.40;;;19.40;99.90;;;;;;5069741;28;20427;-69
2021/03/29 13:00:09;;;;;;;5.87;3.87;;;19.40;99.90;;;;;;5070602;28;20512;-71
2021/03/29 13:02:36;;;;;;;4.20;3.50;;;19.40;99.90;;;;;;5069696;28;20518;-65
2021/03/29 13:05:03;;;;;;;5.77;4.20;;;19.30;99.90;;;;;;5070531;28;20517;-67
2021/03/29 13:07:38;;;;;;;5.07;3.80;;;19.40;99.90;;;;;;5087055;28;20514;-65
2021/03/29 13:12:35;;;;;;;5.75;3.38;;;19.40;99.90;;;;;;5068828;28;20847;-71
2021/03/29 13:15:07;;;;;;;5.90;3.93;;;19.50;99.90;;;;;;5070088;28;20212;-66